MSC Levina — 3FJR8 — position and weather

sailwx.info

Track history (hours):
 
Tides and Currents Weather Stations Pressure Air Temp Water Temp Dewpoint Dewpoint Depression Visibility Wind Speed Wind Dir Waves Ship Positions

MSC Levina

Last reported at 2017-Aug-15 10:28 UTC. Time now 2017-Aug-17 19:17 UTC.
Position N 33°58' E 134°59'.

Length 227.6 m; beam 32.2 m; draft 12.1 m.

Type: Ship. MMSI: 355609000.

Date/timePositionNaut miles runAvg speedWind from/ knotsBaromVisibWave heightAir tempDewpointWater temp
2017-Aug-15 10:28N 33°58' E 134°59'4 9.5
2017-Aug-15 10:00N 34°02' E 134°59'510.3
2017-Aug-15 09:30N 34°08' E 134°59'510.5
2017-Aug-15 09:00N 34°13' E 134°58'713.3
2017-Aug-15 08:28N 34°20' E 134°59'815.5
2017-Aug-15 07:59N 34°26' E 135°05'715.5
2017-Aug-15 07:30N 34°31' E 135°11'815.1
2017-Aug-15 07:00N 34°37' E 135°17'4 7.6
2017-Aug-15 06:30N 34°40' E 135°14'0 0.0
2017-Aug-15 05:55N 34°40' E 135°14'0 0.0
2017-Aug-15 05:25N 34°40' E 135°14'0 0.0
2017-Aug-15 04:55N 34°40' E 135°14'0 0.0
2017-Aug-15 04:25N 34°40' E 135°14'0 0.0
2017-Aug-15 03:55N 34°40' E 135°14'0 0.0
2017-Aug-15 03:25N 34°40' E 135°14'0 0.0
2017-Aug-15 02:49N 34°40' E 135°14'0 0.0
2017-Aug-15 02:19N 34°40' E 135°14'0 0.0
2017-Aug-15 01:55N 34°40' E 135°14'0 0.0
2017-Aug-15 01:25N 34°40' E 135°14'0 0.0
2017-Aug-15 00:55N 34°40' E 135°14'0 0.0
2017-Aug-15 00:25N 34°40' E 135°14'0 0.0
2017-Aug-14 23:55N 34°40' E 135°14'0 0.0
2017-Aug-14 23:25N 34°40' E 135°14'0 0.0
2017-Aug-14 22:55N 34°40' E 135°14'0 0.8
2017-Aug-14 22:30N 34°40' E 135°14'4 7.5
2017-Aug-14 22:00N 34°37' E 135°18'510.7
2017-Aug-14 21:30N 34°39' E 135°24'0 0.4
2017-Aug-14 21:00N 34°39' E 135°24'0 0.0
2017-Aug-14 20:30N 34°39' E 135°24'0 0.1
2017-Aug-14 19:54N 34°39' E 135°24'0 0.1
2017-Aug-14 19:30N 34°39' E 135°24'0 0.1
2017-Aug-14 19:00N 34°39' E 135°24'0 0.1
2017-Aug-14 18:30N 34°39' E 135°24'0 0.0
2017-Aug-14 18:00N 34°39' E 135°24'0 0.0
2017-Aug-14 17:30N 34°39' E 135°24'0 0.1
2017-Aug-14 17:00N 34°39' E 135°24'0 0.1
2017-Aug-14 16:30N 34°39' E 135°24'0 0.0
2017-Aug-14 16:00N 34°39' E 135°24'0 0.0
2017-Aug-14 15:18N 34°39' E 135°24'0 0.0
2017-Aug-14 14:54N 34°39' E 135°24'0 0.1
2017-Aug-14 14:30N 34°39' E 135°24'0 0.1
2017-Aug-14 14:00N 34°39' E 135°24'0 0.0
2017-Aug-14 13:30N 34°39' E 135°24'0 0.1
2017-Aug-14 13:00N 34°39' E 135°24'0 0.0
2017-Aug-14 12:18N 34°39' E 135°24'0 0.0
2017-Aug-14 12:00N 34°39' E 135°24'0 0.1
2017-Aug-14 11:24N 34°39' E 135°24'0 0.0
2017-Aug-14 10:54N 34°39' E 135°24'0 0.0
2017-Aug-14 10:30N 34°39' E 135°24'0 0.0
2017-Aug-14 09:54N 34°39' E 135°24'0 0.0
2017-Aug-14 09:24N 34°39' E 135°24'0 0.1
2017-Aug-14 08:54N 34°39' E 135°24'0 0.1
2017-Aug-14 08:24N 34°39' E 135°24'0 0.0
2017-Aug-14 08:00N 34°39' E 135°24'0 0.0
2017-Aug-14 07:30N 34°39' E 135°24'0 0.1
2017-Aug-14 07:00N 34°39' E 135°24'0 0.0
2017-Aug-14 06:30N 34°39' E 135°24'0 0.0
2017-Aug-14 06:00N 34°39' E 135°24'0 0.0
2017-Aug-14 05:30N 34°39' E 135°24'0 0.0
2017-Aug-14 04:48N 34°39' E 135°24'0 0.0
2017-Aug-14 04:30N 34°39' E 135°24'0 0.1
2017-Aug-14 04:00N 34°39' E 135°24'0 0.5
2017-Aug-14 03:30N 34°39' E 135°24'4 7.2
2017-Aug-14 03:00N 34°36' E 135°21'713.9
2017-Aug-14 02:30N 34°31' E 135°15'815.8
2017-Aug-14 02:00N 34°26' E 135°08'916.5
2017-Aug-14 01:29N 34°19' E 135°01'715.4
2017-Aug-14 01:00N 34°12' E 134°59'5 9.6
2017-Aug-14 00:30N 34°07' E 134°59'713.6
2017-Aug-14 00:01N 34°01' E 134°59'713.5
2017-Aug-13 23:29N 33°54' E 134°58'68013.4
2017-Aug-11 20:39N 29°41' E 122°36'214.4
2017-Aug-11 20:30N 29°40' E 122°33'815.1
2017-Aug-11 20:00N 29°42' E 122°25'510.9
2017-Aug-11 19:30N 29°44' E 122°19'5 9.1
2017-Aug-11 19:01N 29°47' E 122°15'612.2
2017-Aug-11 18:30N 29°52' E 122°11'713.3
2017-Aug-11 18:01N 29°55' E 122°04'3 4.3
2017-Aug-11 17:24N 29°54' E 122°02'0 0.0
2017-Aug-11 17:00N 29°54' E 122°02'0 0.0
2017-Aug-11 16:30N 29°54' E 122°02'0 0.0
2017-Aug-11 16:00N 29°54' E 122°02'0 0.0
2017-Aug-11 15:30N 29°54' E 122°02'0 0.0
2017-Aug-11 14:54N 29°54' E 122°02'0 0.0
2017-Aug-11 14:30N 29°54' E 122°02'0 0.0
2017-Aug-11 13:18N 29°54' E 122°02'0 0.0
2017-Aug-11 13:00N 29°54' E 122°02'0 0.0
2017-Aug-11 12:30N 29°54' E 122°02'0 0.0
2017-Aug-11 11:36N 29°54' E 122°02'0 0.0
2017-Aug-11 11:18N 29°54' E 122°02'0 0.0
2017-Aug-11 10:48N 29°54' E 122°02'0 0.0
2017-Aug-11 10:30N 29°54' E 122°02'0 0.0
2017-Aug-11 09:54N 29°54' E 122°02'0 0.0
2017-Aug-11 09:30N 29°54' E 122°02'0 0.0
2017-Aug-11 09:00N 29°54' E 122°02'0 0.0
2017-Aug-11 08:30N 29°54' E 122°02'0 0.0
2017-Aug-11 08:00N 29°54' E 122°02'0 0.0
2017-Aug-11 07:30N 29°54' E 122°02'0 0.0
2017-Aug-11 07:00N 29°54' E 122°02'0 0.0
2017-Aug-11 06:30N 29°54' E 122°02'0 0.0
2017-Aug-11 06:00N 29°54' E 122°02'0 0.0
2017-Aug-11 05:18N 29°54' E 122°02'0 0.0
2017-Aug-11 05:00N 29°54' E 122°02'0 0.0
2017-Aug-11 04:30N 29°54' E 122°02'0 0.0
2017-Aug-11 03:54N 29°54' E 122°02'0 0.0
2017-Aug-11 03:24N 29°54' E 122°02'0 0.0
2017-Aug-11 02:57N 29°54' E 122°02'0 0.0
2017-Aug-11 02:30N 29°54' E 122°02'0 0.0
2017-Aug-11 02:00N 29°54' E 122°02'0 0.0
2017-Aug-11 01:30N 29°54' E 122°02'0 0.0
2017-Aug-11 01:00N 29°54' E 122°02'0 0.0
2017-Aug-11 00:24N 29°54' E 122°02'0 0.0
2017-Aug-10 23:57N 29°54' E 122°02'0 0.0
2017-Aug-10 23:30N 29°54' E 122°02'0 0.0
2017-Aug-10 22:57N 29°54' E 122°02'0 0.0
2017-Aug-10 22:30N 29°54' E 122°02'0 0.0
2017-Aug-10 22:00N 29°54' E 122°02'0 0.0
2017-Aug-10 21:30N 29°54' E 122°02'0 0.0
2017-Aug-10 21:01N 29°54' E 122°02'2 3.6
2017-Aug-10 20:30N 29°54' E 122°04'3 6.3
2017-Aug-10 20:00N 29°55' E 122°07'4 8.9
2017-Aug-10 19:30N 29°53' E 122°12'510.7
2017-Aug-10 19:00N 29°48' E 122°15'5 9.3
2017-Aug-10 18:30N 29°45' E 122°19'4 7.6
2017-Aug-10 18:01N 29°44' E 122°23'4 8.7
2017-Aug-10 17:30N 29°44' E 122°28'4 8.2
2017-Aug-10 17:00N 29°44' E 122°33'611.0
2017-Aug-10 16:30N 29°44' E 122°39'612.7
2017-Aug-10 16:00N 29°44' E 122°46'913.8
2017-Aug-10 15:23N 29°44' E 122°56'514.0
2017-Aug-10 15:00N 29°44' E 123°02'  
2017-Aug-06 13:40N 34°46' E 139°35'1 8.8
2017-Aug-06 13:30N 34°47' E 139°35'4 8.2
2017-Aug-06 12:59N 34°51' E 139°37'4 8.4
2017-Aug-06 12:30N 34°55' E 139°39'4 8.9
2017-Aug-06 12:00N 34°59' E 139°41'4 8.5
2017-Aug-06 11:30N 35°03' E 139°42'4 8.2
2017-Aug-06 11:00N 35°07' E 139°45'4 8.6
2017-Aug-06 10:30N 35°11' E 139°46'510.9
2017-Aug-06 10:01N 35°16' E 139°46'612.2
2017-Aug-06 09:30N 35°22' E 139°42'611.5
2017-Aug-06 09:00N 35°28' E 139°42'0 0.8
2017-Aug-06 08:29N 35°28' E 139°42'0 0.1
2017-Aug-06 07:59N 35°28' E 139°42'0 0.1
2017-Aug-06 07:29N 35°28' E 139°42'0 0.0
2017-Aug-06 06:59N 35°28' E 139°42'0 0.0
2017-Aug-06 06:29N 35°28' E 139°42'0 0.0
2017-Aug-06 05:59N 35°28' E 139°42'0 0.0
2017-Aug-06 05:26N 35°28' E 139°42'0 0.0
2017-Aug-06 04:59N 35°28' E 139°42'0 0.0
2017-Aug-06 04:29N 35°28' E 139°42'0 0.0
2017-Aug-06 03:59N 35°28' E 139°42'0 0.0
2017-Aug-06 03:29N 35°28' E 139°42'0 0.1
2017-Aug-06 02:59N 35°28' E 139°42'0 0.1
2017-Aug-06 02:29N 35°28' E 139°42'0 0.0
2017-Aug-06 01:59N 35°28' E 139°42'0 0.1
2017-Aug-06 01:29N 35°28' E 139°42'0 0.1
2017-Aug-06 00:59N 35°28' E 139°42'0 0.0
2017-Aug-06 00:29N 35°28' E 139°42'0 0.0
2017-Aug-05 23:59N 35°28' E 139°42'0 0.0
2017-Aug-05 23:29N 35°28' E 139°42'0 0.0
2017-Aug-05 22:59N 35°28' E 139°42'0 0.2
2017-Aug-05 22:30N 35°28' E 139°42'3 5.1
2017-Aug-05 22:00N 35°27' E 139°45'1 1.1
2017-Aug-05 21:28N 35°27' E 139°45'0 0.1
2017-Aug-05 20:58N 35°27' E 139°45'0 0.1
2017-Aug-05 20:28N 35°27' E 139°45'0 0.1
2017-Aug-05 19:58N 35°27' E 139°45'0 0.0
2017-Aug-05 19:28N 35°27' E 139°45'0 0.0
2017-Aug-05 18:58N 35°27' E 139°45'0 0.1
2017-Aug-05 18:28N 35°27' E 139°45'0 0.0
2017-Aug-05 17:58N 35°27' E 139°45'0 0.0
2017-Aug-05 17:28N 35°27' E 139°45'0 0.0
2017-Aug-05 16:58N 35°27' E 139°45'0 0.0
2017-Aug-05 16:28N 35°27' E 139°45'0 0.0
2017-Aug-05 15:58N 35°27' E 139°45'0 0.0
2017-Aug-05 15:28N 35°27' E 139°45'0 0.0
2017-Aug-05 14:58N 35°27' E 139°45'0 0.0
2017-Aug-05 14:28N 35°27' E 139°45'0 0.0
2017-Aug-05 13:58N 35°27' E 139°45'0 0.0
2017-Aug-05 13:28N 35°27' E 139°45'0 0.0
2017-Aug-05 12:58N 35°27' E 139°45'0 0.0
2017-Aug-05 12:28N 35°27' E 139°45'0 0.1
2017-Aug-05 11:58N 35°27' E 139°45'0 0.0
2017-Aug-05 11:30N 35°27' E 139°45'0 0.0
2017-Aug-05 11:00N 35°27' E 139°45'0 0.1
2017-Aug-05 10:30N 35°27' E 139°45'  
Track history (hours):
 
Tides and Currents Weather Stations Pressure Air Temp Water Temp Dewpoint Dewpoint Depression Visibility Wind Speed Wind Dir Waves Ship Positions

MSC Levina

Last reported at 2017-Aug-15 10:28 UTC. Time now 2017-Aug-17 19:17 UTC.
Position N 33°58' E 134°59'.

Length 227.6 m; beam 32.2 m; draft 12.1 m.

Type: Ship. MMSI: 355609000.

Date/timePositionNaut miles runAvg speedWind from/ knotsBaromVisibWave heightAir tempDewpointWater temp
2017-Aug-15 10:28N 33°58' E 134°59'4 9.5
2017-Aug-15 10:00N 34°02' E 134°59'510.3
2017-Aug-15 09:30N 34°08' E 134°59'510.5
2017-Aug-15 09:00N 34°13' E 134°58'713.3
2017-Aug-15 08:28N 34°20' E 134°59'815.5
2017-Aug-15 07:59N 34°26' E 135°05'715.5
2017-Aug-15 07:30N 34°31' E 135°11'815.1
2017-Aug-15 07:00N 34°37' E 135°17'4 7.6
2017-Aug-15 06:30N 34°40' E 135°14'0 0.0
2017-Aug-15 05:55N 34°40' E 135°14'0 0.0
2017-Aug-15 05:25N 34°40' E 135°14'0 0.0
2017-Aug-15 04:55N 34°40' E 135°14'0 0.0
2017-Aug-15 04:25N 34°40' E 135°14'0 0.0
2017-Aug-15 03:55N 34°40' E 135°14'0 0.0
2017-Aug-15 03:25N 34°40' E 135°14'0 0.0
2017-Aug-15 02:49N 34°40' E 135°14'0 0.0
2017-Aug-15 02:19N 34°40' E 135°14'0 0.0
2017-Aug-15 01:55N 34°40' E 135°14'0 0.0
2017-Aug-15 01:25N 34°40' E 135°14'0 0.0
2017-Aug-15 00:55N 34°40' E 135°14'0 0.0
2017-Aug-15 00:25N 34°40' E 135°14'0 0.0
2017-Aug-14 23:55N 34°40' E 135°14'0 0.0
2017-Aug-14 23:25N 34°40' E 135°14'0 0.0
2017-Aug-14 22:55N 34°40' E 135°14'0 0.8
2017-Aug-14 22:30N 34°40' E 135°14'4 7.5
2017-Aug-14 22:00N 34°37' E 135°18'510.7
2017-Aug-14 21:30N 34°39' E 135°24'0 0.4
2017-Aug-14 21:00N 34°39' E 135°24'0 0.0
2017-Aug-14 20:30N 34°39' E 135°24'0 0.1
2017-Aug-14 19:54N 34°39' E 135°24'0 0.1
2017-Aug-14 19:30N 34°39' E 135°24'0 0.1
2017-Aug-14 19:00N 34°39' E 135°24'0 0.1
2017-Aug-14 18:30N 34°39' E 135°24'0 0.0
2017-Aug-14 18:00N 34°39' E 135°24'0 0.0
2017-Aug-14 17:30N 34°39' E 135°24'0 0.1
2017-Aug-14 17:00N 34°39' E 135°24'0 0.1
2017-Aug-14 16:30N 34°39' E 135°24'0 0.0
2017-Aug-14 16:00N 34°39' E 135°24'0 0.0
2017-Aug-14 15:18N 34°39' E 135°24'0 0.0
2017-Aug-14 14:54N 34°39' E 135°24'0 0.1
2017-Aug-14 14:30N 34°39' E 135°24'0 0.1
2017-Aug-14 14:00N 34°39' E 135°24'0 0.0
2017-Aug-14 13:30N 34°39' E 135°24'0 0.1
2017-Aug-14 13:00N 34°39' E 135°24'0 0.0
2017-Aug-14 12:18N 34°39' E 135°24'0 0.0
2017-Aug-14 12:00N 34°39' E 135°24'0 0.1
2017-Aug-14 11:24N 34°39' E 135°24'0 0.0
2017-Aug-14 10:54N 34°39' E 135°24'0 0.0
2017-Aug-14 10:30N 34°39' E 135°24'0 0.0
2017-Aug-14 09:54N 34°39' E 135°24'0 0.0
2017-Aug-14 09:24N 34°39' E 135°24'0 0.1
2017-Aug-14 08:54N 34°39' E 135°24'0 0.1
2017-Aug-14 08:24N 34°39' E 135°24'0 0.0
2017-Aug-14 08:00N 34°39' E 135°24'0 0.0
2017-Aug-14 07:30N 34°39' E 135°24'0 0.1
2017-Aug-14 07:00N 34°39' E 135°24'0 0.0
2017-Aug-14 06:30N 34°39' E 135°24'0 0.0
2017-Aug-14 06:00N 34°39' E 135°24'0 0.0
2017-Aug-14 05:30N 34°39' E 135°24'0 0.0
2017-Aug-14 04:48N 34°39' E 135°24'0 0.0
2017-Aug-14 04:30N 34°39' E 135°24'0 0.1
2017-Aug-14 04:00N 34°39' E 135°24'0 0.5
2017-Aug-14 03:30N 34°39' E 135°24'4 7.2
2017-Aug-14 03:00N 34°36' E 135°21'713.9
2017-Aug-14 02:30N 34°31' E 135°15'815.8
2017-Aug-14 02:00N 34°26' E 135°08'916.5
2017-Aug-14 01:29N 34°19' E 135°01'715.4
2017-Aug-14 01:00N 34°12' E 134°59'5 9.6
2017-Aug-14 00:30N 34°07' E 134°59'713.6
2017-Aug-14 00:01N 34°01' E 134°59'713.5
2017-Aug-13 23:29N 33°54' E 134°58'68013.4
2017-Aug-11 20:39N 29°41' E 122°36'214.4
2017-Aug-11 20:30N 29°40' E 122°33'815.1
2017-Aug-11 20:00N 29°42' E 122°25'510.9
2017-Aug-11 19:30N 29°44' E 122°19'5 9.1
2017-Aug-11 19:01N 29°47' E 122°15'612.2
2017-Aug-11 18:30N 29°52' E 122°11'713.3
2017-Aug-11 18:01N 29°55' E 122°04'3 4.3
2017-Aug-11 17:24N 29°54' E 122°02'0 0.0
2017-Aug-11 17:00N 29°54' E 122°02'0 0.0
2017-Aug-11 16:30N 29°54' E 122°02'0 0.0
2017-Aug-11 16:00N 29°54' E 122°02'0 0.0
2017-Aug-11 15:30N 29°54' E 122°02'0 0.0
2017-Aug-11 14:54N 29°54' E 122°02'0 0.0
2017-Aug-11 14:30N 29°54' E 122°02'0 0.0
2017-Aug-11 13:18N 29°54' E 122°02'0 0.0
2017-Aug-11 13:00N 29°54' E 122°02'0 0.0
2017-Aug-11 12:30N 29°54' E 122°02'0 0.0
2017-Aug-11 11:36N 29°54' E 122°02'0 0.0
2017-Aug-11 11:18N 29°54' E 122°02'0 0.0
2017-Aug-11 10:48N 29°54' E 122°02'0 0.0
2017-Aug-11 10:30N 29°54' E 122°02'0 0.0
2017-Aug-11 09:54N 29°54' E 122°02'0 0.0
2017-Aug-11 09:30N 29°54' E 122°02'0 0.0
2017-Aug-11 09:00N 29°54' E 122°02'0 0.0
2017-Aug-11 08:30N 29°54' E 122°02'0 0.0
2017-Aug-11 08:00N 29°54' E 122°02'0 0.0
2017-Aug-11 07:30N 29°54' E 122°02'0 0.0
2017-Aug-11 07:00N 29°54' E 122°02'0 0.0
2017-Aug-11 06:30N 29°54' E 122°02'0 0.0
2017-Aug-11 06:00N 29°54' E 122°02'0 0.0
2017-Aug-11 05:18N 29°54' E 122°02'0 0.0
2017-Aug-11 05:00N 29°54' E 122°02'0 0.0
2017-Aug-11 04:30N 29°54' E 122°02'0 0.0
2017-Aug-11 03:54N 29°54' E 122°02'0 0.0
2017-Aug-11 03:24N 29°54' E 122°02'0 0.0
2017-Aug-11 02:57N 29°54' E 122°02'0 0.0
2017-Aug-11 02:30N 29°54' E 122°02'0 0.0
2017-Aug-11 02:00N 29°54' E 122°02'0 0.0
2017-Aug-11 01:30N 29°54' E 122°02'0 0.0
2017-Aug-11 01:00N 29°54' E 122°02'0 0.0
2017-Aug-11 00:24N 29°54' E 122°02'0 0.0
2017-Aug-10 23:57N 29°54' E 122°02'0 0.0
2017-Aug-10 23:30N 29°54' E 122°02'0 0.0
2017-Aug-10 22:57N 29°54' E 122°02'0 0.0
2017-Aug-10 22:30N 29°54' E 122°02'0 0.0
2017-Aug-10 22:00N 29°54' E 122°02'0 0.0
2017-Aug-10 21:30N 29°54' E 122°02'0 0.0
2017-Aug-10 21:01N 29°54' E 122°02'2 3.6
2017-Aug-10 20:30N 29°54' E 122°04'3 6.3
2017-Aug-10 20:00N 29°55' E 122°07'4 8.9
2017-Aug-10 19:30N 29°53' E 122°12'510.7
2017-Aug-10 19:00N 29°48' E 122°15'5 9.3
2017-Aug-10 18:30N 29°45' E 122°19'4 7.6
2017-Aug-10 18:01N 29°44' E 122°23'4 8.7
2017-Aug-10 17:30N 29°44' E 122°28'4 8.2
2017-Aug-10 17:00N 29°44' E 122°33'611.0
2017-Aug-10 16:30N 29°44' E 122°39'612.7
2017-Aug-10 16:00N 29°44' E 122°46'913.8
2017-Aug-10 15:23N 29°44' E 122°56'514.0
2017-Aug-10 15:00N 29°44' E 123°02'  
2017-Aug-06 13:40N 34°46' E 139°35'1 8.8
2017-Aug-06 13:30N 34°47' E 139°35'4 8.2
2017-Aug-06 12:59N 34°51' E 139°37'4 8.4
2017-Aug-06 12:30N 34°55' E 139°39'4 8.9
2017-Aug-06 12:00N 34°59' E 139°41'4 8.5
2017-Aug-06 11:30N 35°03' E 139°42'4 8.2
2017-Aug-06 11:00N 35°07' E 139°45'4 8.6
2017-Aug-06 10:30N 35°11' E 139°46'510.9
2017-Aug-06 10:01N 35°16' E 139°46'612.2
2017-Aug-06 09:30N 35°22' E 139°42'611.5
2017-Aug-06 09:00N 35°28' E 139°42'0 0.8
2017-Aug-06 08:29N 35°28' E 139°42'0 0.1
2017-Aug-06 07:59N 35°28' E 139°42'0 0.1
2017-Aug-06 07:29N 35°28' E 139°42'0 0.0
2017-Aug-06 06:59N 35°28' E 139°42'0 0.0
2017-Aug-06 06:29N 35°28' E 139°42'0 0.0
2017-Aug-06 05:59N 35°28' E 139°42'0 0.0
2017-Aug-06 05:26N 35°28' E 139°42'0 0.0
2017-Aug-06 04:59N 35°28' E 139°42'0 0.0
2017-Aug-06 04:29N 35°28' E 139°42'0 0.0
2017-Aug-06 03:59N 35°28' E 139°42'0 0.0
2017-Aug-06 03:29N 35°28' E 139°42'0 0.1
2017-Aug-06 02:59N 35°28' E 139°42'0 0.1
2017-Aug-06 02:29N 35°28' E 139°42'0 0.0
2017-Aug-06 01:59N 35°28' E 139°42'0 0.1
2017-Aug-06 01:29N 35°28' E 139°42'0 0.1
2017-Aug-06 00:59N 35°28' E 139°42'0 0.0
2017-Aug-06 00:29N 35°28' E 139°42'0 0.0
2017-Aug-05 23:59N 35°28' E 139°42'0 0.0
2017-Aug-05 23:29N 35°28' E 139°42'0 0.0
2017-Aug-05 22:59N 35°28' E 139°42'0 0.2
2017-Aug-05 22:30N 35°28' E 139°42'3 5.1
2017-Aug-05 22:00N 35°27' E 139°45'1 1.1
2017-Aug-05 21:28N 35°27' E 139°45'0 0.1
2017-Aug-05 20:58N 35°27' E 139°45'0 0.1
2017-Aug-05 20:28N 35°27' E 139°45'0 0.1
2017-Aug-05 19:58N 35°27' E 139°45'0 0.0
2017-Aug-05 19:28N 35°27' E 139°45'0 0.0
2017-Aug-05 18:58N 35°27' E 139°45'0 0.1
2017-Aug-05 18:28N 35°27' E 139°45'0 0.0
2017-Aug-05 17:58N 35°27' E 139°45'0 0.0
2017-Aug-05 17:28N 35°27' E 139°45'0 0.0
2017-Aug-05 16:58N 35°27' E 139°45'0 0.0
2017-Aug-05 16:28N 35°27' E 139°45'0 0.0
2017-Aug-05 15:58N 35°27' E 139°45'0 0.0
2017-Aug-05 15:28N 35°27' E 139°45'0 0.0
2017-Aug-05 14:58N 35°27' E 139°45'0 0.0
2017-Aug-05 14:28N 35°27' E 139°45'0 0.0
2017-Aug-05 13:58N 35°27' E 139°45'0 0.0
2017-Aug-05 13:28N 35°27' E 139°45'0 0.0
2017-Aug-05 12:58N 35°27' E 139°45'0 0.0
2017-Aug-05 12:28N 35°27' E 139°45'0 0.1
2017-Aug-05 11:58N 35°27' E 139°45'0 0.0
2017-Aug-05 11:30N 35°27' E 139°45'0 0.0
2017-Aug-05 11:00N 35°27' E 139°45'0 0.1
2017-Aug-05 10:30N 35°27' E 139°45'  

Dump ship's entire track history